createdAt,value
2022-09-23T00:02:16.228Z,53.10
2022-09-23T00:04:46.782Z,52.77
2022-09-23T00:07:15.077Z,52.33
2022-09-23T00:09:43.498Z,55.33
2022-09-23T00:12:11.868Z,52.77
2022-09-23T00:14:40.587Z,53.03
2022-09-23T00:17:09.104Z,60.03
2022-09-23T00:19:40.291Z,53.43
2022-09-23T00:22:09.974Z,57.97
2022-09-23T00:24:38.304Z,59.33
2022-09-23T00:27:07.256Z,55.70
2022-09-23T00:29:36.955Z,56.53
2022-09-23T00:32:05.721Z,61.60
2022-09-23T00:34:33.925Z,57.93
2022-09-23T00:37:02.573Z,57.47
2022-09-23T00:39:32.458Z,55.03
2022-09-23T00:42:00.614Z,60.83
2022-09-23T00:44:44.753Z,57.80
2022-09-23T00:47:21.476Z,56.03
2022-09-23T00:49:55.436Z,58.20
2022-09-23T00:52:25.556Z,63.87
2022-09-23T00:54:58.922Z,60.10
2022-09-23T00:57:28.201Z,58.43
2022-09-23T00:59:57.868Z,60.77
2022-09-23T01:02:26.956Z,64.33
2022-09-23T01:04:55.603Z,61.47
2022-09-23T01:07:24.269Z,59.63
2022-09-23T01:09:52.506Z,65.07
2022-09-23T01:12:34.749Z,63.47
2022-09-23T01:15:13.960Z,64.00
2022-09-23T01:17:52.576Z,65.27
2022-09-23T01:20:56.925Z,70.23
2022-09-23T01:23:56.309Z,75.00
2022-09-23T01:26:56.626Z,64.90
2022-09-23T01:30:05.462Z,71.73
2022-09-23T01:32:58.794Z,71.60
2022-09-23T01:35:35.406Z,70.40
2022-09-23T01:38:13.746Z,68.57
2022-09-23T01:40:50.350Z,73.50
2022-09-23T01:43:26.744Z,72.50
2022-09-23T01:45:59.890Z,67.57
2022-09-23T01:48:34.990Z,65.37
2022-09-23T01:51:09.240Z,73.37
2022-09-23T01:53:43.211Z,67.33
2022-09-23T01:56:15.434Z,69.43
2022-09-23T01:58:49.567Z,71.67
2022-09-23T02:01:23.308Z,68.57
2022-09-23T02:03:59.696Z,66.17
2022-09-23T02:06:31.681Z,65.17
2022-09-23T02:09:02.920Z,68.33
2022-09-23T02:11:36.441Z,70.20
2022-09-23T02:14:10.066Z,68.13
2022-09-23T02:16:44.860Z,65.47
2022-09-23T02:19:16.642Z,64.30
2022-09-23T02:21:48.389Z,63.63
2022-09-23T02:24:20.224Z,66.80
2022-09-23T02:26:54.225Z,68.17
2022-09-23T02:29:27.616Z,59.13
2022-09-23T02:32:00.647Z,65.13
2022-09-23T02:34:46.545Z,64.87
2022-09-23T02:37:27.425Z,56.87
2022-09-23T02:40:03.207Z,56.37
2022-09-23T02:42:39.467Z,57.00
2022-09-23T02:45:08.226Z,53.27
2022-09-23T02:47:40.059Z,56.77
2022-09-23T02:50:10.465Z,59.03
2022-09-23T02:52:39.067Z,56.03
2022-09-23T02:55:11.021Z,55.43
2022-09-23T02:57:39.672Z,54.47
2022-09-23T03:00:09.151Z,56.77
2022-09-23T03:02:51.804Z,52.13
2022-09-23T03:05:25.760Z,51.90
2022-09-23T03:08:07.771Z,56.77
2022-09-23T03:10:48.434Z,49.47
2022-09-23T03:13:26.189Z,52.47
2022-09-23T03:16:05.393Z,51.27
2022-09-23T03:18:39.607Z,46.17
2022-09-23T03:21:14.462Z,46.63
2022-09-23T03:23:44.187Z,49.53
2022-09-23T03:26:16.894Z,44.03
2022-09-23T03:28:46.855Z,46.33
2022-09-23T03:31:16.262Z,46.77
2022-09-23T03:33:49.217Z,47.57
2022-09-23T03:36:41.203Z,52.90
2022-09-23T03:39:13.700Z,45.10
2022-09-23T03:41:45.990Z,42.20
2022-09-23T03:44:15.503Z,46.20
2022-09-23T03:46:49.727Z,46.53
2022-09-23T03:49:20.637Z,43.20
2022-09-23T03:51:50.363Z,46.33
2022-09-23T03:54:20.397Z,40.73
2022-09-23T03:56:49.352Z,50.97
2022-09-23T03:59:17.785Z,41.93
2022-09-23T04:01:46.890Z,44.13
2022-09-23T04:04:15.502Z,42.23
2022-09-23T04:06:44.154Z,40.03
2022-09-23T04:09:13.819Z,41.90
2022-09-23T04:11:42.175Z,38.83
2022-09-23T04:14:12.134Z,40.60
2022-09-23T04:16:40.500Z,36.90
2022-09-23T04:19:11.724Z,42.17
2022-09-23T04:21:42.410Z,38.50
2022-09-23T04:24:10.626Z,36.20
2022-09-23T04:26:41.269Z,37.77
2022-09-23T04:29:09.859Z,35.47
2022-09-23T04:31:38.496Z,37.27
2022-09-23T04:34:08.290Z,37.40
2022-09-23T04:36:36.892Z,35.03
2022-09-23T04:39:05.733Z,33.40
2022-09-23T04:41:34.002Z,40.87
2022-09-23T04:44:03.791Z,33.20
2022-09-23T04:46:32.399Z,33.47
2022-09-23T04:49:00.880Z,38.70
2022-09-23T04:51:29.285Z,35.87
2022-09-23T04:53:57.842Z,31.00
2022-09-23T04:56:27.625Z,31.37
2022-09-23T04:58:57.204Z,29.23
2022-09-23T05:01:28.495Z,33.60
2022-09-23T05:03:58.513Z,29.63
2022-09-23T05:06:27.087Z,29.30
2022-09-23T05:08:56.568Z,30.90
2022-09-23T05:11:25.847Z,27.30
2022-09-23T05:13:55.687Z,30.10
2022-09-23T05:16:26.985Z,24.27
2022-09-23T05:18:55.484Z,25.10
2022-09-23T05:21:24.926Z,28.33
2022-09-23T05:23:55.246Z,28.27
2022-09-23T05:26:25.416Z,26.37
2022-09-23T05:28:54.807Z,29.90
2022-09-23T05:31:24.401Z,33.47
2022-09-23T05:33:55.914Z,24.93
2022-09-23T05:36:25.124Z,24.43
2022-09-23T05:38:54.655Z,24.93
2022-09-23T05:41:23.540Z,23.80
2022-09-23T05:43:52.489Z,21.23
2022-09-23T05:46:23.260Z,27.73
2022-09-23T05:48:53.254Z,22.80
2022-09-23T05:51:25.477Z,21.73
2022-09-23T05:53:57.756Z,24.37
2022-09-23T05:56:28.832Z,24.27
2022-09-23T05:58:58.392Z,31.83
2022-09-23T06:01:28.763Z,25.23
2022-09-23T06:03:59.694Z,20.13
2022-09-23T06:06:29.967Z,20.67
2022-09-23T06:08:58.559Z,20.03
2022-09-23T06:11:27.244Z,17.63
2022-09-23T06:13:57.594Z,18.87
2022-09-23T06:16:26.003Z,20.40
2022-09-23T06:18:54.417Z,22.77
2022-09-23T06:21:24.091Z,21.17
2022-09-23T06:23:55.810Z,19.77
2022-09-23T06:26:25.847Z,19.20
2022-09-23T06:28:54.101Z,22.40
2022-09-23T06:31:22.391Z,20.23
2022-09-23T06:33:58.035Z,18.33
2022-09-23T06:36:41.933Z,21.50
2022-09-23T06:39:11.404Z,19.43
2022-09-23T06:41:40.233Z,24.90
2022-09-23T06:44:08.598Z,23.37
2022-09-23T06:46:37.563Z,22.40
2022-09-23T06:49:06.083Z,19.27
2022-09-23T06:51:35.663Z,19.03
2022-09-23T06:54:04.084Z,17.73
2022-09-23T06:56:37.958Z,20.40
2022-09-23T06:59:08.275Z,20.13
2022-09-23T07:01:36.696Z,17.87
2022-09-23T07:04:05.130Z,21.43
2022-09-23T07:06:35.283Z,18.63
2022-09-23T07:09:03.672Z,20.93
2022-09-23T07:11:31.935Z,19.03
2022-09-23T07:14:00.297Z,17.17
2022-09-23T07:16:28.884Z,17.97
2022-09-23T07:18:57.235Z,15.03
2022-09-23T07:21:26.075Z,18.50
2022-09-23T07:23:58.062Z,17.03
2022-09-23T07:26:27.372Z,15.53
2022-09-23T07:28:56.856Z,19.00
2022-09-23T07:31:39.293Z,20.60
2022-09-23T07:34:11.380Z,15.73
2022-09-23T07:36:41.364Z,15.67
2022-09-23T07:39:13.383Z,16.20
2022-09-23T07:41:44.617Z,17.27
2022-09-23T07:44:13.146Z,19.20
2022-09-23T07:46:41.920Z,20.30
2022-09-23T07:49:10.561Z,18.90
2022-09-23T07:51:41.198Z,19.50
2022-09-23T07:54:13.252Z,20.23
2022-09-23T07:56:43.017Z,19.40
2022-09-23T07:59:15.343Z,18.53
2022-09-23T08:01:45.329Z,18.53
2022-09-23T08:04:15.027Z,20.27
2022-09-23T08:06:44.125Z,24.13
2022-09-23T08:09:14.110Z,23.80
2022-09-23T08:11:42.860Z,17.57
2022-09-23T08:14:12.672Z,20.77
2022-09-23T08:16:41.024Z,17.07
2022-09-23T08:19:09.722Z,16.67
2022-09-23T08:21:39.315Z,19.43
2022-09-23T08:24:08.166Z,14.60
2022-09-23T08:26:38.304Z,18.27
2022-09-23T08:29:09.845Z,20.33
2022-09-23T08:31:38.047Z,19.60
2022-09-23T08:34:06.705Z,15.93
2022-09-23T08:36:35.484Z,21.37
2022-09-23T08:39:04.024Z,19.13
2022-09-23T08:41:44.535Z,17.80
2022-09-23T08:44:19.437Z,21.23
2022-09-23T08:46:50.971Z,18.97
2022-09-23T08:49:26.982Z,18.77
2022-09-23T08:51:57.184Z,19.23
2022-09-23T08:54:34.228Z,17.90
2022-09-23T08:57:04.974Z,19.93
2022-09-23T08:59:41.305Z,20.13
2022-09-23T09:02:18.587Z,17.42
2022-09-23T09:04:50.422Z,21.13
2022-09-23T09:07:36.121Z,17.20
2022-09-23T09:10:11.588Z,14.45
2022-09-23T09:12:44.431Z,20.00
2022-09-23T09:15:15.883Z,16.52
2022-09-23T09:17:52.396Z,17.10
2022-09-23T09:20:25.770Z,20.15
2022-09-23T09:22:57.473Z,19.23
2022-09-23T09:25:42.721Z,15.00
2022-09-23T09:28:19.088Z,18.33
2022-09-23T09:30:51.462Z,18.98
2022-09-23T09:33:25.396Z,18.85
2022-09-23T09:36:09.084Z,20.25
2022-09-23T09:38:37.796Z,18.65
2022-09-23T09:41:14.227Z,18.00
2022-09-23T09:43:48.486Z,19.60
2022-09-23T09:46:29.400Z,16.80
2022-09-23T09:49:01.796Z,13.52
2022-09-23T09:51:30.630Z,18.48
2022-09-23T09:54:18.055Z,15.15
2022-09-23T09:59:25.108Z,17.13
2022-09-23T10:02:14.546Z,13.23
2022-09-23T10:04:42.989Z,19.98
2022-09-23T10:07:14.438Z,17.05
2022-09-23T10:09:50.566Z,22.48
2022-09-23T10:12:20.259Z,13.65
2022-09-23T10:14:51.825Z,18.30
2022-09-23T10:17:23.086Z,17.35
2022-09-23T10:20:00.526Z,16.08
2022-09-23T10:22:32.752Z,17.25
2022-09-23T10:25:09.889Z,18.13
2022-09-23T10:27:41.238Z,16.13
2022-09-23T10:30:22.650Z,14.10
2022-09-23T10:32:51.867Z,12.70
2022-09-23T10:35:22.644Z,18.55
2022-09-23T10:37:52.989Z,13.68
2022-09-23T10:40:46.010Z,13.73
2022-09-23T10:43:51.566Z,20.05
2022-09-23T10:46:39.601Z,17.27
2022-09-23T10:49:44.453Z,14.07
2022-09-23T10:52:31.991Z,18.23
2022-09-23T10:55:16.544Z,13.23
2022-09-23T10:58:02.167Z,15.13
2022-09-23T11:00:40.930Z,13.70
2022-09-23T11:03:43.276Z,13.45
2022-09-23T11:06:22.334Z,17.55
2022-09-23T11:09:17.482Z,22.15
2022-09-23T11:11:59.675Z,15.70
2022-09-23T11:14:42.651Z,18.08
2022-09-23T11:17:29.995Z,13.88
2022-09-23T11:20:24.333Z,16.90
2022-09-23T11:23:20.164Z,15.32
2022-09-23T11:25:57.325Z,14.82
2022-09-23T11:28:55.051Z,15.55
2022-09-23T11:31:33.620Z,15.90
2022-09-23T11:34:16.648Z,15.30
2022-09-23T11:36:51.096Z,15.20
2022-09-23T11:39:23.803Z,11.77
2022-09-23T11:41:55.364Z,14.35
2022-09-23T11:44:27.729Z,13.88
2022-09-23T11:47:02.924Z,11.55
2022-09-23T11:49:35.001Z,10.35
2022-09-23T11:52:10.038Z,13.63
2022-09-23T11:54:44.864Z,8.30
2022-09-23T11:57:23.428Z,10.55
2022-09-23T11:59:56.123Z,10.18
2022-09-23T12:02:31.107Z,9.35
2022-09-23T12:05:06.778Z,13.65
2022-09-23T12:07:50.609Z,16.17
2022-09-23T12:10:19.561Z,13.68
2022-09-23T12:12:56.854Z,17.42
2022-09-23T12:15:39.447Z,9.57
2022-09-23T12:18:29.193Z,13.98
2022-09-23T12:21:48.658Z,9.50
2022-09-23T12:24:48.388Z,8.93
2022-09-23T12:27:32.275Z,9.68
2022-09-23T12:30:03.369Z,10.65
2022-09-23T12:32:32.294Z,12.00
2022-09-23T12:35:01.392Z,7.88
2022-09-23T12:37:34.303Z,11.73
2022-09-23T12:40:16.917Z,9.23
2022-09-23T12:42:47.701Z,7.28
2022-09-23T12:45:34.714Z,9.98
2022-09-23T12:48:04.982Z,13.15
2022-09-23T12:50:53.210Z,8.40
2022-09-23T12:53:58.754Z,11.10
2022-09-23T12:57:10.210Z,5.32
2022-09-23T12:59:58.964Z,6.88
2022-09-23T13:02:36.889Z,8.38
2022-09-23T13:05:34.818Z,12.05
2022-09-23T13:08:08.133Z,8.45
2022-09-23T13:10:42.911Z,8.07
2022-09-23T13:13:21.130Z,8.10
2022-09-23T13:15:50.134Z,7.30
2022-09-23T13:18:45.547Z,6.78
2022-09-23T13:21:40.817Z,5.43
2022-09-23T13:24:20.551Z,7.72
2022-09-23T13:26:51.214Z,7.00
2022-09-23T13:29:25.066Z,5.97
2022-09-23T13:31:54.418Z,6.65
2022-09-23T13:34:25.843Z,9.98
2022-09-23T13:36:54.495Z,8.25
2022-09-23T13:39:25.609Z,8.25
2022-09-23T13:41:56.894Z,6.45
2022-09-23T13:44:26.425Z,8.85
2022-09-23T13:46:56.485Z,8.80
2022-09-23T13:49:27.021Z,9.70
2022-09-23T13:51:56.998Z,12.73
2022-09-23T13:54:30.149Z,8.65
2022-09-23T13:56:58.712Z,9.68
2022-09-23T13:59:29.928Z,8.20
2022-09-23T14:02:05.372Z,12.75
2022-09-23T14:04:33.643Z,10.15
2022-09-23T14:07:03.038Z,10.13
2022-09-23T14:09:33.156Z,8.13
2022-09-23T14:12:02.978Z,8.48
2022-09-23T14:14:35.942Z,9.65
2022-09-23T14:17:04.953Z,9.43
2022-09-23T14:19:33.980Z,7.40
2022-09-23T14:22:02.418Z,8.93
2022-09-23T14:24:33.953Z,9.52
2022-09-23T14:27:17.429Z,6.95
2022-09-23T14:29:49.387Z,12.60
2022-09-23T14:32:21.079Z,8.75
2022-09-23T14:34:52.254Z,10.38
2022-09-23T14:37:45.403Z,12.18
2022-09-23T14:40:16.882Z,11.20
2022-09-23T14:42:47.686Z,14.52
2022-09-23T14:45:20.620Z,15.10
2022-09-23T14:47:51.039Z,11.57
2022-09-23T14:50:39.987Z,15.52
2022-09-23T14:53:32.025Z,14.48
2022-09-23T14:56:17.668Z,14.35
2022-09-23T14:58:54.645Z,15.45
2022-09-23T15:01:34.687Z,13.05
2022-09-23T15:04:13.364Z,13.23
2022-09-23T15:06:46.674Z,15.50
2022-09-23T15:09:23.600Z,16.85
2022-09-23T15:11:58.750Z,15.73
2022-09-23T15:14:39.609Z,13.88
2022-09-23T15:17:18.753Z,15.00
2022-09-23T15:19:52.504Z,13.60
2022-09-23T15:22:21.118Z,13.68
2022-09-23T15:24:51.609Z,14.60
2022-09-23T15:27:40.935Z,12.00
2022-09-23T15:30:17.273Z,9.80
2022-09-23T15:32:47.714Z,9.95
2022-09-23T15:35:18.669Z,11.65
2022-09-23T15:37:48.091Z,11.55
2022-09-23T15:40:20.978Z,12.85
2022-09-23T15:42:51.586Z,11.35
2022-09-23T15:45:22.064Z,15.07
2022-09-23T15:47:52.640Z,13.23
2022-09-23T15:50:21.186Z,15.70
2022-09-23T15:52:49.634Z,13.43
2022-09-23T15:55:21.305Z,15.93
2022-09-23T15:57:49.952Z,17.75
2022-09-23T16:00:18.634Z,15.43
2022-09-23T16:02:49.297Z,15.15
2022-09-23T16:05:25.844Z,16.77
2022-09-23T16:07:54.140Z,14.30
2022-09-23T16:10:24.652Z,14.43
2022-09-23T16:12:54.684Z,18.05
2022-09-23T16:15:24.427Z,13.68
2022-09-23T16:17:52.765Z,15.63
2022-09-23T16:20:22.793Z,16.80
2022-09-23T16:22:54.914Z,16.20
2022-09-23T16:25:28.188Z,18.23
2022-09-23T16:27:58.463Z,15.10
2022-09-23T16:30:27.963Z,15.70
2022-09-23T16:32:56.222Z,15.15
2022-09-23T16:35:28.084Z,16.48
2022-09-23T16:37:57.387Z,13.55
2022-09-23T16:40:26.106Z,14.95
2022-09-23T16:42:55.867Z,18.13
2022-09-23T16:45:24.419Z,15.98
2022-09-23T16:47:54.385Z,14.70
2022-09-23T16:50:24.023Z,17.50
2022-09-23T16:52:56.404Z,16.58
2022-09-23T16:55:27.633Z,16.52
2022-09-23T16:57:55.947Z,19.48
2022-09-23T17:00:42.365Z,22.17
2022-09-23T17:03:30.778Z,21.67
2022-09-23T17:06:02.355Z,26.60
2022-09-23T17:08:34.265Z,23.73
2022-09-23T17:11:03.061Z,19.83
2022-09-23T17:13:32.462Z,20.63
2022-09-23T17:16:01.499Z,21.50
2022-09-23T17:18:29.970Z,20.70
2022-09-23T17:20:59.624Z,18.52
2022-09-23T17:23:28.425Z,18.27
2022-09-23T17:25:57.862Z,21.08
2022-09-23T17:28:26.219Z,20.17
2022-09-23T17:30:58.779Z,23.13
2022-09-23T17:33:27.460Z,19.70
2022-09-23T17:35:56.805Z,18.67
2022-09-23T17:38:28.933Z,22.48
2022-09-23T17:41:01.308Z,19.50
2022-09-23T17:43:31.465Z,23.98
2022-09-23T17:46:06.493Z,19.73
2022-09-23T17:48:36.628Z,18.02
2022-09-23T17:51:06.264Z,13.20
2022-09-23T17:53:36.182Z,14.48
2022-09-23T17:56:11.240Z,14.02
2022-09-23T17:58:39.751Z,14.52
2022-09-23T18:01:11.043Z,11.77
2022-09-23T18:03:40.130Z,12.38
2022-09-23T18:06:10.521Z,11.43
2022-09-23T18:08:39.382Z,14.27
2022-09-23T18:11:17.441Z,11.50
2022-09-23T18:13:49.999Z,14.88
2022-09-23T18:16:19.097Z,13.23
2022-09-23T18:18:51.988Z,12.90
2022-09-23T18:21:20.804Z,13.13
2022-09-23T18:23:49.245Z,13.45
2022-09-23T18:26:21.902Z,14.48
2022-09-23T18:28:52.825Z,55.95
2022-09-23T18:31:22.586Z,15.05
2022-09-23T18:33:51.732Z,29.15
2022-09-23T18:36:20.962Z,15.48
2022-09-23T18:38:50.144Z,16.00
2022-09-23T18:41:19.713Z,14.55
2022-09-23T18:43:48.998Z,15.70
2022-09-23T18:46:18.597Z,15.20
2022-09-23T18:49:04.857Z,14.35
2022-09-23T18:51:34.845Z,18.17
2022-09-23T18:54:05.410Z,15.27
2022-09-23T18:56:39.651Z,18.58
2022-09-23T18:59:08.646Z,17.20
2022-09-23T19:01:36.979Z,22.45
2022-09-23T19:04:06.689Z,20.83
2022-09-23T19:06:37.416Z,17.63
2022-09-23T19:09:07.318Z,16.10
2022-09-23T19:11:37.227Z,13.75
2022-09-23T19:14:06.760Z,15.18
2022-09-23T19:16:36.115Z,12.27
2022-09-23T19:19:05.367Z,15.93
2022-09-23T19:21:34.160Z,16.08
2022-09-23T19:24:04.584Z,14.18
2022-09-23T19:26:35.148Z,14.82
2022-09-23T19:29:08.126Z,15.90
2022-09-23T19:31:39.606Z,14.63
2022-09-23T19:34:10.714Z,16.48
2022-09-23T19:36:42.186Z,16.63
2022-09-23T19:39:16.269Z,14.60
2022-09-23T19:41:44.928Z,14.77
2022-09-23T19:44:14.678Z,15.50
2022-09-23T19:46:45.432Z,14.45
2022-09-23T19:49:15.160Z,12.75
2022-09-23T19:51:44.246Z,14.30
2022-09-23T19:54:13.060Z,14.50
2022-09-23T19:56:42.158Z,16.13
2022-09-23T19:59:13.211Z,15.80
2022-09-23T20:01:44.876Z,16.30
2022-09-23T20:04:13.272Z,16.40
2022-09-23T20:06:41.671Z,16.55
2022-09-23T20:09:10.081Z,18.38
2022-09-23T20:11:38.819Z,14.35
2022-09-23T20:14:07.293Z,15.88
2022-09-23T20:16:37.775Z,17.75
2022-09-23T20:19:07.886Z,19.10
2022-09-23T20:21:36.611Z,15.38
2022-09-23T20:24:06.932Z,18.33
2022-09-23T20:26:52.990Z,18.65
2022-09-23T20:29:21.724Z,18.95
2022-09-23T20:31:50.228Z,18.33
2022-09-23T20:34:20.487Z,17.88
2022-09-23T20:36:49.283Z,19.05
2022-09-23T20:39:17.678Z,17.85
2022-09-23T20:41:46.365Z,19.92
2022-09-23T20:44:14.644Z,18.92
2022-09-23T20:46:48.311Z,20.48
2022-09-23T20:49:17.993Z,17.10
2022-09-23T20:51:48.945Z,20.70
2022-09-23T20:54:19.173Z,20.40
2022-09-23T20:56:47.683Z,18.60
2022-09-23T20:59:17.671Z,17.75
2022-09-23T21:01:47.762Z,17.13
2022-09-23T21:04:16.360Z,16.42
2022-09-23T21:06:44.895Z,16.10
2022-09-23T21:09:14.369Z,18.75
2022-09-23T21:11:42.764Z,16.95
2022-09-23T21:14:11.000Z,18.52
2022-09-23T21:16:39.803Z,17.98
2022-09-23T21:19:08.671Z,17.05
2022-09-23T21:21:37.123Z,18.38
2022-09-23T21:24:36.024Z,17.70
2022-09-23T21:26:55.338Z,17.10
2022-09-23T21:29:23.868Z,20.40
2022-09-23T21:31:52.154Z,18.42
2022-09-23T21:34:20.555Z,19.23
2022-09-23T21:36:49.217Z,17.58
2022-09-23T21:39:17.606Z,19.52
2022-09-23T21:41:45.947Z,19.30
2022-09-23T21:44:15.937Z,16.73
2022-09-23T21:46:44.755Z,18.27
2022-09-23T21:49:13.270Z,17.58
2022-09-23T21:51:42.398Z,17.05
2022-09-23T21:54:14.414Z,15.77
2022-09-23T21:56:43.953Z,16.80
2022-09-23T21:59:12.208Z,17.13
2022-09-23T22:01:44.547Z,14.43
2022-09-23T22:04:16.997Z,12.60
2022-09-23T22:06:46.348Z,10.52
2022-09-23T22:09:16.949Z,9.93
2022-09-23T22:12:02.827Z,8.80
2022-09-23T22:14:31.495Z,9.25
2022-09-23T22:17:02.610Z,9.20
2022-09-23T22:19:34.978Z,8.75
2022-09-23T22:22:06.978Z,9.85
2022-09-23T22:24:35.408Z,8.68
2022-09-23T22:27:04.327Z,9.48
2022-09-23T22:29:50.016Z,9.35
2022-09-23T22:32:41.669Z,9.00
2022-09-23T22:35:11.033Z,9.10
2022-09-23T22:37:39.859Z,9.88
2022-09-23T22:40:10.106Z,10.75
2022-09-23T22:42:39.383Z,12.00
2022-09-23T22:45:09.213Z,12.48
2022-09-23T22:47:40.982Z,17.23
2022-09-23T22:50:11.407Z,14.88
2022-09-23T22:52:40.398Z,15.05
2022-09-23T22:55:09.252Z,11.50
2022-09-23T22:57:37.776Z,11.38
2022-09-23T23:00:07.981Z,14.18
2022-09-23T23:02:36.814Z,11.10
2022-09-23T23:05:07.282Z,10.70
2022-09-23T23:07:36.258Z,9.52
2022-09-23T23:10:10.058Z,10.52
2022-09-23T23:12:40.112Z,11.27
2022-09-23T23:15:10.595Z,9.63
2022-09-23T23:17:40.775Z,9.37
2022-09-23T23:20:11.088Z,9.48
2022-09-23T23:22:39.408Z,9.95
2022-09-23T23:25:09.060Z,10.60
2022-09-23T23:27:37.453Z,9.00
2022-09-23T23:30:06.123Z,11.73
2022-09-23T23:32:34.331Z,10.98
2022-09-23T23:35:02.564Z,13.37
2022-09-23T23:37:32.240Z,13.37
2022-09-23T23:40:00.467Z,15.13
2022-09-23T23:42:28.656Z,15.23
2022-09-23T23:44:57.101Z,16.40
2022-09-23T23:47:26.358Z,14.57
2022-09-23T23:49:54.644Z,14.82
2022-09-23T23:52:22.922Z,15.82
2022-09-23T23:54:52.676Z,20.13
2022-09-23T23:57:21.344Z,21.77
2022-09-23T23:59:49.717Z,28.67
